createdAt,value
2022-10-09T00:00:50.784Z,10.44
2022-10-09T00:03:18.141Z,10.49
2022-10-09T00:05:45.335Z,10.51
2022-10-09T00:08:11.984Z,10.38
2022-10-09T00:10:43.006Z,10.46
2022-10-09T00:13:09.715Z,10.24
2022-10-09T00:15:40.869Z,10.27
2022-10-09T00:18:09.230Z,10.27
2022-10-09T00:20:40.914Z,10.10
2022-10-09T00:23:07.585Z,9.86
2022-10-09T00:25:35.750Z,9.80
2022-10-09T00:28:03.878Z,9.67
2022-10-09T00:30:30.899Z,9.76
2022-10-09T00:32:57.320Z,9.69
2022-10-09T00:35:24.871Z,9.69
2022-10-09T00:37:51.329Z,9.82
2022-10-09T00:40:17.721Z,9.86
2022-10-09T00:42:45.689Z,9.77
2022-10-09T00:45:20.136Z,9.82
2022-10-09T00:47:53.205Z,9.76
2022-10-09T00:50:24.090Z,9.77
2022-10-09T00:52:54.484Z,9.65
2022-10-09T00:55:23.412Z,9.55
2022-10-09T00:57:51.758Z,9.66
2022-10-09T01:00:18.487Z,9.57
2022-10-09T01:02:45.192Z,9.53
2022-10-09T01:05:13.193Z,9.50
2022-10-09T01:08:03.932Z,9.53
2022-10-09T01:10:37.657Z,9.60
2022-10-09T01:13:20.514Z,9.70
2022-10-09T01:15:56.571Z,9.78
2022-10-09T01:18:36.030Z,9.67
2022-10-09T01:21:14.853Z,9.57
2022-10-09T01:24:13.469Z,9.56
2022-10-09T01:27:03.819Z,9.37
2022-10-09T01:29:36.209Z,9.36
2022-10-09T01:32:05.458Z,9.21
2022-10-09T01:34:33.022Z,9.24
2022-10-09T01:37:00.817Z,9.17
2022-10-09T01:39:29.278Z,9.21
2022-10-09T01:41:56.939Z,9.16
2022-10-09T01:44:30.089Z,9.19
2022-10-09T01:46:57.365Z,9.10
2022-10-09T01:49:26.666Z,9.31
2022-10-09T01:52:11.729Z,9.25
2022-10-09T01:55:16.675Z,9.17
2022-10-09T01:57:57.283Z,9.18
2022-10-09T02:00:24.483Z,9.23
2022-10-09T02:02:53.113Z,9.20
2022-10-09T02:05:24.548Z,9.13
2022-10-09T02:07:51.456Z,9.23
2022-10-09T02:10:20.343Z,9.17
2022-10-09T02:12:53.108Z,9.22
2022-10-09T02:15:22.348Z,9.22
2022-10-09T02:17:53.521Z,9.04
2022-10-09T02:20:32.696Z,9.08
2022-10-09T02:23:04.307Z,9.15
2022-10-09T02:25:31.150Z,9.26
2022-10-09T02:27:58.235Z,8.95
2022-10-09T02:30:30.166Z,9.10
2022-10-09T02:32:56.622Z,8.85
2022-10-09T02:35:23.080Z,8.72
2022-10-09T02:37:49.426Z,8.90
2022-10-09T02:40:15.974Z,8.63
2022-10-09T02:42:42.322Z,8.38
2022-10-09T02:45:09.512Z,8.54
2022-10-09T02:47:35.905Z,8.72
2022-10-09T02:50:02.255Z,8.72
2022-10-09T02:52:28.607Z,8.66
2022-10-09T02:54:54.969Z,8.91
2022-10-09T02:57:21.327Z,8.66
2022-10-09T02:59:47.696Z,8.70
2022-10-09T03:02:14.281Z,8.87
2022-10-09T03:04:40.767Z,8.89
2022-10-09T03:07:07.132Z,8.71
2022-10-09T03:09:33.954Z,8.76
2022-10-09T03:12:00.383Z,8.89
2022-10-09T03:14:26.822Z,8.77
2022-10-09T03:16:53.176Z,8.67
2022-10-09T03:19:19.548Z,8.73
2022-10-09T03:21:45.914Z,8.58
2022-10-09T03:24:12.375Z,8.80
2022-10-09T03:26:38.719Z,8.58
2022-10-09T03:29:05.058Z,8.54
2022-10-09T03:31:51.934Z,8.69
2022-10-09T03:34:17.789Z,8.54
2022-10-09T03:36:44.159Z,8.64
2022-10-09T03:39:10.638Z,8.51
2022-10-09T03:41:36.990Z,8.56
2022-10-09T03:44:03.414Z,8.62
2022-10-09T03:46:29.868Z,8.65
2022-10-09T03:48:56.278Z,8.41
2022-10-09T03:51:22.695Z,8.42
2022-10-09T03:53:49.157Z,8.39
2022-10-09T03:56:15.518Z,8.34
2022-10-09T03:58:41.851Z,8.12
2022-10-09T04:01:08.372Z,8.05
2022-10-09T04:03:34.858Z,8.08
2022-10-09T04:06:01.197Z,8.01
2022-10-09T04:08:27.678Z,8.37
2022-10-09T04:10:58.549Z,8.14
2022-10-09T04:13:25.166Z,8.15
2022-10-09T04:15:53.085Z,8.31
2022-10-09T04:18:19.799Z,8.03
2022-10-09T04:20:54.657Z,8.25
2022-10-09T04:23:24.016Z,8.08
2022-10-09T04:25:59.431Z,8.06
2022-10-09T04:28:27.044Z,8.12
2022-10-09T04:30:53.500Z,8.06
2022-10-09T04:33:20.220Z,7.99
2022-10-09T04:35:50.487Z,7.74
2022-10-09T04:38:17.177Z,7.96
2022-10-09T04:40:43.615Z,7.94
2022-10-09T04:43:10.200Z,7.93
2022-10-09T04:45:40.402Z,7.85
2022-10-09T04:48:06.826Z,7.73
2022-10-09T04:50:33.216Z,7.57
2022-10-09T04:52:59.597Z,7.55
2022-10-09T04:55:25.953Z,7.64
2022-10-09T04:57:52.436Z,7.49
2022-10-09T05:00:18.999Z,7.46
2022-10-09T05:02:45.359Z,7.45
2022-10-09T05:05:11.862Z,7.67
2022-10-09T05:07:38.644Z,7.86
2022-10-09T05:10:06.361Z,7.83
2022-10-09T05:12:32.739Z,7.91
2022-10-09T05:14:59.125Z,7.83
2022-10-09T05:17:25.622Z,7.51
2022-10-09T05:19:52.198Z,7.65
2022-10-09T05:22:18.652Z,7.75
2022-10-09T05:24:45.590Z,7.73
2022-10-09T05:27:11.930Z,7.69
2022-10-09T05:29:38.358Z,7.43
2022-10-09T05:32:04.791Z,7.49
2022-10-09T05:34:31.182Z,7.31
2022-10-09T05:36:57.530Z,7.59
2022-10-09T05:39:23.961Z,7.43
2022-10-09T05:41:50.327Z,7.17
2022-10-09T05:44:16.693Z,7.61
2022-10-09T05:46:43.051Z,7.47
2022-10-09T05:49:09.907Z,7.61
2022-10-09T05:51:39.005Z,7.59
2022-10-09T05:54:06.805Z,7.51
2022-10-09T05:56:38.407Z,7.66
2022-10-09T05:59:07.634Z,7.60
2022-10-09T06:01:39.102Z,7.73
2022-10-09T06:04:06.646Z,7.78
2022-10-09T06:06:36.938Z,7.83
2022-10-09T06:09:04.352Z,7.68
2022-10-09T06:11:32.897Z,7.83
2022-10-09T06:14:00.940Z,7.84
2022-10-09T06:16:30.368Z,7.89
2022-10-09T06:18:57.397Z,7.78
2022-10-09T06:21:25.383Z,7.85
2022-10-09T06:23:53.978Z,7.90
2022-10-09T06:26:21.946Z,7.69
2022-10-09T06:28:49.060Z,7.68
2022-10-09T06:31:18.392Z,7.79
2022-10-09T06:33:46.659Z,7.79
2022-10-09T06:36:18.108Z,7.88
2022-10-09T06:38:44.928Z,7.95
2022-10-09T06:41:17.228Z,8.11
2022-10-09T06:43:47.834Z,8.07
2022-10-09T06:46:14.211Z,8.24
2022-10-09T06:48:40.899Z,8.01
2022-10-09T06:51:12.425Z,8.13
2022-10-09T06:53:44.428Z,8.03
2022-10-09T06:56:11.707Z,8.25
2022-10-09T06:58:39.236Z,8.22
2022-10-09T07:01:14.399Z,8.13
2022-10-09T07:03:42.696Z,7.90
2022-10-09T07:06:10.192Z,8.26
2022-10-09T07:08:37.176Z,8.32
2022-10-09T07:11:14.255Z,8.46
2022-10-09T07:13:42.062Z,8.26
2022-10-09T07:16:09.404Z,8.33
2022-10-09T07:18:36.505Z,8.41
2022-10-09T07:21:07.465Z,8.72
2022-10-09T07:23:34.716Z,8.60
2022-10-09T07:26:01.403Z,8.68
2022-10-09T07:28:30.183Z,8.69
2022-10-09T07:30:56.992Z,8.75
2022-10-09T07:33:23.462Z,8.72
2022-10-09T07:35:58.245Z,8.78
2022-10-09T07:38:24.880Z,8.81
2022-10-09T07:40:52.430Z,8.64
2022-10-09T07:43:19.442Z,8.65
2022-10-09T07:45:46.353Z,8.88
2022-10-09T07:48:13.552Z,8.86
2022-10-09T07:50:39.919Z,8.87
2022-10-09T07:53:06.323Z,8.87
2022-10-09T07:55:32.669Z,9.05
2022-10-09T07:57:59.030Z,9.00
2022-10-09T08:00:25.481Z,9.12
2022-10-09T08:02:52.387Z,9.27
2022-10-09T08:05:19.148Z,9.30
2022-10-09T08:07:45.503Z,9.40
2022-10-09T08:10:12.033Z,9.18
2022-10-09T08:12:38.432Z,9.45
2022-10-09T08:15:05.254Z,9.55
2022-10-09T08:17:31.664Z,9.57
2022-10-09T08:19:58.442Z,9.80
2022-10-09T08:22:24.811Z,10.30
2022-10-09T08:24:51.215Z,10.52
2022-10-09T08:27:17.703Z,11.36
2022-10-09T08:29:44.048Z,12.06
2022-10-09T08:32:10.412Z,12.38
2022-10-09T08:34:36.801Z,12.94
2022-10-09T08:37:03.138Z,13.42
2022-10-09T08:39:31.016Z,13.94
2022-10-09T08:42:01.501Z,13.63
2022-10-09T08:44:42.817Z,14.09
2022-10-09T08:47:23.485Z,14.39
2022-10-09T08:50:15.628Z,14.98
2022-10-09T08:53:03.740Z,14.78
2022-10-09T08:55:40.399Z,14.38
2022-10-09T08:58:07.226Z,14.74
2022-10-09T09:00:43.181Z,15.13
2022-10-09T09:03:27.654Z,15.64
2022-10-09T09:06:14.673Z,15.49
2022-10-09T09:08:49.942Z,15.99
2022-10-09T09:11:57.496Z,16.05
2022-10-09T09:14:23.761Z,15.88
2022-10-09T09:17:02.850Z,16.14
2022-10-09T09:19:42.802Z,16.46
2022-10-09T09:22:14.541Z,16.16
2022-10-09T09:24:46.906Z,16.25
2022-10-09T09:27:19.288Z,16.70
2022-10-09T09:29:54.766Z,16.05
2022-10-09T09:32:23.555Z,16.68
2022-10-09T09:34:50.327Z,16.54
2022-10-09T09:37:17.036Z,16.98
2022-10-09T09:40:34.543Z,17.96
2022-10-09T09:42:30.493Z,17.42
2022-10-09T09:45:06.509Z,17.80
2022-10-09T09:47:35.997Z,17.73
2022-10-09T09:50:05.370Z,18.22
2022-10-09T09:52:37.373Z,17.86
2022-10-09T09:55:04.735Z,18.41
2022-10-09T09:57:35.204Z,18.51
2022-10-09T10:00:27.837Z,18.43
2022-10-09T10:03:03.342Z,18.22
2022-10-09T10:05:36.443Z,18.68
2022-10-09T10:08:13.922Z,18.74
2022-10-09T10:10:45.200Z,19.44
2022-10-09T10:13:16.625Z,19.38
2022-10-09T10:15:55.198Z,19.44
2022-10-09T10:18:24.501Z,19.60
2022-10-09T10:20:54.778Z,19.89
2022-10-09T10:23:29.905Z,19.99
2022-10-09T10:25:58.436Z,19.47
2022-10-09T10:28:31.222Z,20.39
2022-10-09T10:31:02.563Z,20.33
2022-10-09T10:33:32.954Z,20.46
2022-10-09T10:35:59.998Z,19.79
2022-10-09T10:38:35.873Z,18.75
2022-10-09T10:41:14.638Z,19.92
2022-10-09T10:43:48.371Z,20.87
2022-10-09T10:46:28.555Z,20.06
2022-10-09T10:48:56.849Z,20.17
2022-10-09T10:51:38.606Z,19.29
2022-10-09T10:54:26.455Z,19.61
2022-10-09T10:57:05.047Z,18.96
2022-10-09T10:59:45.234Z,19.87
2022-10-09T11:02:39.434Z,19.79
2022-10-09T11:05:35.473Z,19.74
2022-10-09T11:08:17.827Z,19.38
2022-10-09T11:11:01.941Z,20.35
2022-10-09T11:13:46.578Z,21.76
2022-10-09T11:16:19.148Z,22.20
2022-10-09T11:18:59.594Z,21.26
2022-10-09T11:21:55.061Z,21.82
2022-10-09T11:24:33.487Z,22.37
2022-10-09T11:27:03.818Z,22.41
2022-10-09T11:29:39.778Z,21.07
2022-10-09T11:32:30.510Z,21.92
2022-10-09T11:35:14.573Z,21.39
2022-10-09T11:37:43.867Z,21.27
2022-10-09T11:40:18.166Z,21.74
2022-10-09T11:43:09.328Z,22.18
2022-10-09T11:45:46.134Z,21.74
2022-10-09T11:48:16.513Z,21.72
2022-10-09T11:50:53.704Z,21.00
2022-10-09T11:53:22.733Z,22.43
2022-10-09T11:55:49.264Z,22.98
2022-10-09T11:58:18.681Z,22.54
2022-10-09T12:00:47.799Z,20.94
2022-10-09T12:03:36.842Z,21.42
2022-10-09T12:06:13.178Z,20.44
2022-10-09T12:08:55.043Z,21.08
2022-10-09T12:11:22.272Z,21.61
2022-10-09T12:13:59.148Z,21.61
2022-10-09T12:16:37.803Z,20.86
2022-10-09T12:19:15.937Z,21.71
2022-10-09T12:22:07.455Z,21.85
2022-10-09T12:24:45.131Z,20.77
2022-10-09T12:27:19.912Z,21.56
2022-10-09T12:29:52.197Z,21.64
2022-10-09T12:32:28.933Z,20.49
2022-10-09T12:34:56.317Z,21.79
2022-10-09T12:37:33.223Z,21.26
2022-10-09T12:40:30.354Z,21.51
2022-10-09T12:43:00.539Z,21.41
2022-10-09T12:45:30.498Z,20.93
2022-10-09T12:48:09.887Z,21.44
2022-10-09T12:50:36.429Z,21.22
2022-10-09T12:53:04.150Z,21.76
2022-10-09T12:55:36.395Z,21.44
2022-10-09T12:58:06.805Z,21.41
2022-10-09T13:00:34.590Z,21.34
2022-10-09T13:03:01.591Z,20.81
2022-10-09T13:05:42.333Z,20.70
2022-10-09T13:08:24.286Z,20.70
2022-10-09T13:10:51.569Z,19.80
2022-10-09T13:13:22.634Z,20.33
2022-10-09T13:16:02.470Z,20.20
2022-10-09T13:18:29.518Z,20.78
2022-10-09T13:21:16.126Z,20.92
2022-10-09T13:23:42.489Z,21.00
2022-10-09T13:26:30.294Z,20.58
2022-10-09T13:28:59.311Z,20.73
2022-10-09T13:31:26.525Z,20.22
2022-10-09T13:33:52.947Z,20.57
2022-10-09T13:36:20.320Z,20.31
2022-10-09T13:38:47.714Z,20.35
2022-10-09T13:41:23.028Z,20.87
2022-10-09T13:43:51.125Z,20.44
2022-10-09T13:46:17.603Z,20.70
2022-10-09T13:48:43.966Z,19.69
2022-10-09T13:51:10.548Z,19.75
2022-10-09T13:53:37.179Z,19.97
2022-10-09T13:56:04.106Z,20.04
2022-10-09T13:58:31.542Z,19.14
2022-10-09T14:00:58.304Z,19.32
2022-10-09T14:03:24.878Z,19.08
2022-10-09T14:05:57.879Z,18.80
2022-10-09T14:08:24.241Z,18.77
2022-10-09T14:10:50.649Z,19.27
2022-10-09T14:13:17.208Z,20.03
2022-10-09T14:15:43.553Z,19.20
2022-10-09T14:18:09.978Z,19.13
2022-10-09T14:20:36.555Z,18.87
2022-10-09T14:23:02.977Z,19.16
2022-10-09T14:25:29.344Z,19.01
2022-10-09T14:27:56.095Z,18.44
2022-10-09T14:30:22.554Z,18.39
2022-10-09T14:32:49.237Z,19.00
2022-10-09T14:35:20.612Z,18.31
2022-10-09T14:37:47.836Z,18.06
2022-10-09T14:40:14.267Z,18.17
2022-10-09T14:42:40.788Z,17.89
2022-10-09T14:45:08.360Z,18.03
2022-10-09T14:47:34.850Z,17.69
2022-10-09T14:50:01.329Z,17.72
2022-10-09T14:52:27.660Z,17.54
2022-10-09T14:54:54.027Z,17.42
2022-10-09T14:57:20.397Z,17.18
2022-10-09T14:59:46.759Z,17.25
2022-10-09T15:02:15.417Z,16.99
2022-10-09T15:04:41.970Z,16.84
2022-10-09T15:07:08.401Z,16.86
2022-10-09T15:09:34.841Z,16.71
2022-10-09T15:12:01.260Z,16.71
2022-10-09T15:14:27.613Z,16.92
2022-10-09T15:16:53.941Z,16.80
2022-10-09T15:19:20.346Z,16.88
2022-10-09T15:21:46.808Z,16.72
2022-10-09T15:24:13.295Z,16.91
2022-10-09T15:26:39.783Z,16.81
2022-10-09T15:29:08.183Z,16.53
2022-10-09T15:31:37.496Z,16.60
2022-10-09T15:34:05.785Z,16.36
2022-10-09T15:36:35.864Z,16.70
2022-10-09T15:39:05.929Z,16.59
2022-10-09T15:41:35.066Z,16.26
2022-10-09T15:44:04.270Z,16.13
2022-10-09T15:46:31.321Z,16.14
2022-10-09T15:48:58.325Z,16.07
2022-10-09T15:51:25.036Z,16.13
2022-10-09T15:53:52.560Z,16.04
2022-10-09T15:56:22.363Z,16.05
2022-10-09T15:58:49.609Z,15.95
2022-10-09T16:01:17.334Z,15.99
2022-10-09T16:03:44.442Z,16.01
2022-10-09T16:06:13.629Z,15.93
2022-10-09T16:08:41.182Z,15.85
2022-10-09T16:11:09.911Z,15.98
2022-10-09T16:13:39.786Z,15.89
2022-10-09T16:16:10.929Z,15.76
2022-10-09T16:18:37.335Z,15.65
2022-10-09T16:21:05.795Z,15.59
2022-10-09T16:23:32.267Z,15.63
2022-10-09T16:26:00.574Z,15.57
2022-10-09T16:28:27.717Z,15.60
2022-10-09T16:30:54.174Z,15.44
2022-10-09T16:33:20.609Z,15.55
2022-10-09T16:35:47.069Z,15.44
2022-10-09T16:38:14.816Z,15.38
2022-10-09T16:41:01.437Z,15.22
2022-10-09T16:43:28.085Z,15.28
2022-10-09T16:45:54.472Z,15.06
2022-10-09T16:48:20.804Z,14.92
2022-10-09T16:50:47.193Z,14.81
2022-10-09T16:53:15.023Z,14.89
2022-10-09T16:55:41.370Z,14.65
2022-10-09T16:58:07.741Z,14.45
2022-10-09T17:00:34.163Z,14.57
2022-10-09T17:03:00.605Z,14.30
2022-10-09T17:05:27.062Z,14.28
2022-10-09T17:07:54.485Z,14.20
2022-10-09T17:10:20.956Z,14.06
2022-10-09T17:12:47.407Z,14.06
2022-10-09T17:15:13.862Z,14.05
2022-10-09T17:17:40.895Z,14.06
2022-10-09T17:20:09.003Z,13.90
2022-10-09T17:22:35.360Z,14.00
2022-10-09T17:25:02.042Z,13.94
2022-10-09T17:27:28.482Z,13.96
2022-10-09T17:29:54.957Z,13.79
2022-10-09T17:32:21.474Z,13.65
2022-10-09T17:34:48.098Z,13.73
2022-10-09T17:37:14.602Z,13.60
2022-10-09T17:39:44.176Z,13.65
2022-10-09T17:42:12.092Z,13.58
2022-10-09T17:44:38.634Z,13.55
2022-10-09T17:47:06.128Z,13.49
2022-10-09T17:49:32.552Z,13.43
2022-10-09T17:51:58.911Z,13.48
2022-10-09T17:54:25.353Z,13.46
2022-10-09T17:56:51.718Z,13.45
2022-10-09T17:59:18.161Z,13.52
2022-10-09T18:01:44.523Z,13.42
2022-10-09T18:04:17.682Z,13.33
2022-10-09T18:06:44.936Z,13.28
2022-10-09T18:09:12.243Z,13.24
2022-10-09T18:11:38.639Z,13.17
2022-10-09T18:14:05.020Z,13.18
2022-10-09T18:16:36.156Z,13.17
2022-10-09T18:19:08.775Z,13.35
2022-10-09T18:21:35.653Z,13.13
2022-10-09T18:24:02.366Z,13.18
2022-10-09T18:26:28.809Z,13.09
2022-10-09T18:28:55.173Z,13.12
2022-10-09T18:31:23.626Z,12.86
2022-10-09T18:33:50.465Z,13.00
2022-10-09T18:36:19.883Z,13.08
2022-10-09T18:38:53.799Z,13.16
2022-10-09T18:41:22.158Z,13.14
2022-10-09T18:43:49.903Z,13.23
2022-10-09T18:46:19.161Z,13.17
2022-10-09T18:48:45.784Z,13.26
2022-10-09T18:51:18.303Z,13.11
2022-10-09T18:53:52.371Z,13.02
2022-10-09T18:56:21.021Z,13.09
2022-10-09T18:58:49.442Z,13.09
2022-10-09T19:01:16.016Z,13.10
2022-10-09T19:03:45.967Z,13.12
2022-10-09T19:06:15.824Z,13.15
2022-10-09T19:08:42.341Z,13.15
2022-10-09T19:11:10.470Z,13.20
2022-10-09T19:13:36.822Z,12.97
2022-10-09T19:16:06.229Z,12.96
2022-10-09T19:18:35.037Z,12.94
2022-10-09T19:21:01.892Z,12.91
2022-10-09T19:23:28.657Z,12.92
2022-10-09T19:25:57.297Z,12.96
2022-10-09T19:28:26.571Z,12.90
2022-10-09T19:30:53.192Z,12.84
2022-10-09T19:33:19.557Z,12.89
2022-10-09T19:35:54.263Z,12.86
2022-10-09T19:38:22.206Z,12.93
2022-10-09T19:40:49.456Z,12.76
2022-10-09T19:43:17.706Z,12.72
2022-10-09T19:45:44.289Z,12.81
2022-10-09T19:48:10.748Z,12.70
2022-10-09T19:50:41.960Z,12.77
2022-10-09T19:53:08.823Z,12.71
2022-10-09T19:55:36.055Z,12.75
2022-10-09T19:58:02.555Z,12.74
2022-10-09T20:00:29.789Z,12.66
2022-10-09T20:02:56.333Z,12.80
2022-10-09T20:05:23.059Z,12.69
2022-10-09T20:07:50.229Z,12.75
2022-10-09T20:10:17.047Z,12.68
2022-10-09T20:12:43.423Z,12.63
2022-10-09T20:15:10.155Z,12.63
2022-10-09T20:17:36.541Z,12.70
2022-10-09T20:20:04.506Z,12.66
2022-10-09T20:22:30.866Z,12.74
2022-10-09T20:24:57.242Z,12.63
2022-10-09T20:27:23.700Z,12.60
2022-10-09T20:29:52.608Z,12.50
2022-10-09T20:32:18.958Z,12.43
2022-10-09T20:34:45.325Z,12.53
2022-10-09T20:37:11.708Z,12.52
2022-10-09T20:39:38.197Z,12.39
2022-10-09T20:42:04.705Z,12.54
2022-10-09T20:44:31.502Z,12.50
2022-10-09T20:46:57.938Z,12.54
2022-10-09T20:49:24.427Z,12.45
2022-10-09T20:51:52.630Z,12.44
2022-10-09T20:54:21.119Z,12.38
2022-10-09T20:56:48.716Z,12.46
2022-10-09T20:59:16.775Z,12.30
2022-10-09T21:01:43.166Z,12.29
2022-10-09T21:04:11.567Z,12.15
2022-10-09T21:06:38.338Z,12.19
2022-10-09T21:09:05.281Z,12.20
2022-10-09T21:11:32.512Z,12.26
2022-10-09T21:13:58.885Z,12.26
2022-10-09T21:16:25.746Z,12.09
2022-10-09T21:19:02.012Z,12.08
2022-10-09T21:21:29.422Z,11.95
2022-10-09T21:23:57.850Z,11.95
2022-10-09T21:26:26.745Z,11.93
2022-10-09T21:28:58.230Z,11.77
2022-10-09T21:31:28.812Z,11.69
2022-10-09T21:33:56.283Z,11.76
2022-10-09T21:36:34.370Z,11.84
2022-10-09T21:39:01.161Z,11.82
2022-10-09T21:41:27.605Z,11.80
2022-10-09T21:43:54.001Z,11.80
2022-10-09T21:46:20.734Z,11.62
2022-10-09T21:48:47.107Z,11.85
2022-10-09T21:51:13.545Z,11.55
2022-10-09T21:53:39.897Z,11.59
2022-10-09T21:56:07.013Z,11.62
2022-10-09T21:58:33.453Z,11.53
2022-10-09T22:01:01.817Z,11.61
2022-10-09T22:03:31.069Z,11.62
2022-10-09T22:05:57.704Z,11.51
2022-10-09T22:08:24.581Z,11.54
2022-10-09T22:10:51.448Z,11.49
2022-10-09T22:13:18.401Z,11.42
2022-10-09T22:15:48.808Z,11.40
2022-10-09T22:18:17.329Z,11.34
2022-10-09T22:20:46.280Z,11.48
2022-10-09T22:23:13.399Z,11.38
2022-10-09T22:25:39.776Z,11.32
2022-10-09T22:28:06.651Z,11.26
2022-10-09T22:30:33.158Z,11.25
2022-10-09T22:32:59.580Z,11.27
2022-10-09T22:35:26.656Z,11.18
2022-10-09T22:37:53.098Z,11.07
2022-10-09T22:40:19.991Z,11.04
2022-10-09T22:42:46.724Z,11.16
2022-10-09T22:45:13.166Z,11.04
2022-10-09T22:47:39.527Z,11.25
2022-10-09T22:50:06.239Z,11.24
2022-10-09T22:52:32.571Z,11.10
2022-10-09T22:55:00.514Z,11.08
2022-10-09T22:57:26.907Z,11.21
2022-10-09T22:59:53.270Z,11.14
2022-10-09T23:02:19.604Z,11.07
2022-10-09T23:04:46.009Z,11.04
2022-10-09T23:07:12.437Z,10.88
2022-10-09T23:09:38.795Z,10.77
2022-10-09T23:12:05.199Z,10.89
2022-10-09T23:14:31.543Z,10.81
2022-10-09T23:16:57.898Z,10.99
2022-10-09T23:19:24.252Z,10.94
2022-10-09T23:21:50.689Z,10.89
2022-10-09T23:24:17.848Z,10.85
2022-10-09T23:26:50.689Z,10.74
2022-10-09T23:29:19.877Z,10.73
2022-10-09T23:31:46.649Z,10.76
2022-10-09T23:34:13.201Z,10.71
2022-10-09T23:36:39.565Z,10.67
2022-10-09T23:39:07.093Z,10.67
2022-10-09T23:41:33.653Z,10.67
2022-10-09T23:44:00.098Z,10.58
2022-10-09T23:46:29.510Z,10.75
2022-10-09T23:48:56.460Z,10.53
2022-10-09T23:51:25.142Z,10.58
2022-10-09T23:53:52.063Z,10.52
2022-10-09T23:56:20.465Z,10.49
2022-10-09T23:58:47.387Z,10.57
